createdAt,value
2022-08-20T00:00:12.915Z,29.6
2022-08-20T00:01:15.389Z,29.6
2022-08-20T00:02:17.969Z,29.6
2022-08-20T00:03:20.452Z,29.6
2022-08-20T00:04:27.720Z,29.6
2022-08-20T00:05:29.923Z,29.7
2022-08-20T00:06:32.117Z,29.7
2022-08-20T00:07:34.316Z,29.7
2022-08-20T00:08:36.794Z,29.7
2022-08-20T00:09:39.264Z,29.7
2022-08-20T00:10:42.209Z,29.7
2022-08-20T00:11:50.049Z,29.7
2022-08-20T00:12:52.526Z,29.7
2022-08-20T00:13:55.033Z,29.7
2022-08-20T00:14:56.653Z,29.7
2022-08-20T00:15:59.131Z,29.7
2022-08-20T00:17:01.303Z,29.7
2022-08-20T00:18:18.158Z,29.7
2022-08-20T00:19:20.362Z,29.7
2022-08-20T00:20:22.558Z,29.8
2022-08-20T00:21:28.343Z,29.8
2022-08-20T00:22:34.314Z,29.8
2022-08-20T00:23:36.519Z,29.8
2022-08-20T00:24:39.003Z,29.8
2022-08-20T00:25:41.474Z,29.8
2022-08-20T00:27:49.016Z,29.8
2022-08-20T00:28:51.361Z,29.8
2022-08-20T00:29:53.834Z,29.8
2022-08-20T00:30:55.743Z,29.8
2022-08-20T00:31:58.222Z,29.8
2022-08-20T00:33:00.151Z,29.8
2022-08-20T00:34:02.639Z,29.8
2022-08-20T00:35:05.120Z,29.8
2022-08-20T00:36:07.018Z,29.8
2022-08-20T00:37:09.494Z,29.8
2022-08-20T00:38:11.964Z,29.8
2022-08-20T00:39:14.453Z,29.9
2022-08-20T00:41:21.930Z,29.9
2022-08-20T00:42:24.138Z,29.8
2022-08-20T00:43:26.354Z,29.9
2022-08-20T00:44:28.280Z,29.9
2022-08-20T00:45:30.469Z,29.8
2022-08-20T00:46:33.207Z,29.9
2022-08-20T00:47:35.694Z,29.9
2022-08-20T00:48:38.285Z,29.9
2022-08-20T00:49:40.772Z,29.9
2022-08-20T00:50:43.244Z,29.9
2022-08-20T00:51:45.718Z,29.9
2022-08-20T00:53:53.192Z,29.9
2022-08-20T00:54:55.675Z,29.9
2022-08-20T00:55:57.597Z,29.9
2022-08-20T00:57:00.073Z,29.9
2022-08-20T00:58:03.987Z,29.9
2022-08-20T00:59:07.228Z,29.9
2022-08-20T01:00:09.554Z,29.9
2022-08-20T01:01:11.453Z,29.9
2022-08-20T01:02:14.240Z,29.9
2022-08-20T01:03:16.571Z,29.9
2022-08-20T01:04:19.120Z,29.9
2022-08-20T01:06:26.596Z,29.9
2022-08-20T01:07:28.811Z,29.9
2022-08-20T01:08:31.286Z,29.9
2022-08-20T01:10:38.191Z,29.9
2022-08-20T01:11:40.680Z,29.9
2022-08-20T01:12:42.867Z,29.9
2022-08-20T01:13:45.333Z,29.9
2022-08-20T01:14:47.892Z,29.9
2022-08-20T01:15:49.811Z,29.9
2022-08-20T01:16:52.282Z,29.9
2022-08-20T01:17:57.020Z,29.9
2022-08-20T01:18:59.470Z,29.9
2022-08-20T01:20:01.949Z,29.9
2022-08-20T01:21:04.153Z,29.9
2022-08-20T01:22:06.348Z,29.9
2022-08-20T01:23:08.282Z,29.9
2022-08-20T01:24:10.191Z,29.9
2022-08-20T01:25:13.837Z,29.9
2022-08-20T01:26:15.756Z,29.9
2022-08-20T01:27:17.391Z,29.9
2022-08-20T01:28:20.805Z,29.9
2022-08-20T01:29:23.274Z,29.9
2022-08-20T01:30:25.173Z,29.9
2022-08-20T01:31:27.392Z,29.9
2022-08-20T01:32:29.047Z,29.9
2022-08-20T01:33:31.542Z,29.9
2022-08-20T01:34:34.010Z,29.9
2022-08-20T01:35:36.208Z,29.9
2022-08-20T01:36:43.078Z,29.9
2022-08-20T01:37:45.587Z,29.9
2022-08-20T01:39:52.989Z,29.9
2022-08-20T01:40:55.385Z,29.9
2022-08-20T01:41:57.593Z,29.9
2022-08-20T01:43:00.872Z,29.9
2022-08-20T01:45:10.986Z,29.9
2022-08-20T01:46:13.498Z,29.9
2022-08-20T01:47:17.000Z,29.9
2022-08-20T01:48:20.071Z,29.9
2022-08-20T01:49:24.587Z,29.9
2022-08-20T01:50:27.058Z,29.9
2022-08-20T01:51:29.561Z,29.9
2022-08-20T01:52:31.799Z,29.9
2022-08-20T01:53:33.752Z,29.9
2022-08-20T01:54:36.220Z,29.9
2022-08-20T01:55:38.424Z,29.9
2022-08-20T01:56:40.897Z,29.9
2022-08-20T01:57:43.394Z,29.9
2022-08-20T01:58:45.857Z,29.9
2022-08-20T01:59:48.346Z,29.9
2022-08-20T02:00:50.818Z,29.9
2022-08-20T02:01:53.483Z,30
2022-08-20T02:02:57.187Z,29.9
2022-08-20T02:03:59.385Z,29.9
2022-08-20T02:05:01.596Z,30
2022-08-20T02:06:03.785Z,30
2022-08-20T02:07:06.250Z,30
2022-08-20T02:08:09.091Z,30
2022-08-20T02:10:16.579Z,29.9
2022-08-20T02:11:19.063Z,29.9
2022-08-20T02:12:21.263Z,29.9
2022-08-20T02:13:23.745Z,29.9
2022-08-20T02:14:26.217Z,30
2022-08-20T02:16:33.696Z,29.9
2022-08-20T02:17:36.166Z,29.9
2022-08-20T02:18:38.651Z,29.9
2022-08-20T02:19:41.130Z,29.9
2022-08-20T02:20:43.609Z,29.9
2022-08-20T02:21:45.781Z,29.9
2022-08-20T02:23:53.290Z,29.9
2022-08-20T02:24:54.950Z,30
2022-08-20T02:25:56.900Z,29.9
2022-08-20T02:26:58.821Z,30
2022-08-20T02:28:01.298Z,30
2022-08-20T02:29:03.782Z,30
2022-08-20T02:30:07.453Z,30
2022-08-20T02:31:09.939Z,30
2022-08-20T02:33:17.741Z,30
2022-08-20T02:35:25.387Z,30
2022-08-20T02:36:28.016Z,30
2022-08-20T02:37:30.501Z,30
2022-08-20T02:38:32.759Z,30
2022-08-20T02:39:35.399Z,30
2022-08-20T02:40:38.137Z,30
2022-08-20T02:41:40.836Z,30
2022-08-20T02:42:44.931Z,30
2022-08-20T02:43:47.131Z,30
2022-08-20T02:44:49.600Z,30
2022-08-20T02:45:51.808Z,30
2022-08-20T02:46:53.995Z,30
2022-08-20T02:47:57.211Z,30
2022-08-20T02:49:00.433Z,30
2022-08-20T02:51:08.126Z,30
2022-08-20T02:52:10.314Z,30
2022-08-20T02:53:12.804Z,30
2022-08-20T02:54:14.998Z,30
2022-08-20T02:56:22.465Z,30
2022-08-20T02:57:24.939Z,30
2022-08-20T02:58:27.133Z,30
2022-08-20T02:59:29.606Z,30
2022-08-20T03:01:37.317Z,30
2022-08-20T03:02:40.015Z,30
2022-08-20T03:03:42.220Z,30
2022-08-20T03:04:44.699Z,29.9
2022-08-20T03:05:47.170Z,29.9
2022-08-20T03:07:54.514Z,29.9
2022-08-20T03:08:57.403Z,29.9
2022-08-20T03:09:59.602Z,29.8
2022-08-20T03:11:02.097Z,29.8
2022-08-20T03:12:04.568Z,29.8
2022-08-20T03:13:06.765Z,29.8
2022-08-20T03:14:08.969Z,29.8
2022-08-20T03:16:16.436Z,29.7
2022-08-20T03:17:18.908Z,29.7
2022-08-20T03:18:21.117Z,29.7
2022-08-20T03:19:23.306Z,29.7
2022-08-20T03:20:26.410Z,29.7
2022-08-20T03:21:28.600Z,29.7
2022-08-20T03:22:31.088Z,29.6
2022-08-20T03:23:36.794Z,29.6
2022-08-20T03:24:42.764Z,29.6
2022-08-20T03:25:44.975Z,29.6
2022-08-20T03:26:47.453Z,29.6
2022-08-20T03:28:54.917Z,29.6
2022-08-20T03:29:57.386Z,29.6
2022-08-20T03:31:00.783Z,29.6
2022-08-20T03:33:08.002Z,29.6
2022-08-20T03:34:09.922Z,29.6
2022-08-20T03:35:12.102Z,29.6
2022-08-20T03:37:19.564Z,29.5
2022-08-20T03:39:27.034Z,29.5
2022-08-20T03:40:28.956Z,29.5
2022-08-20T03:41:31.426Z,29.5
2022-08-20T03:42:33.630Z,29.5
2022-08-20T03:43:35.918Z,29.5
2022-08-20T03:44:40.124Z,29.5
2022-08-20T03:45:42.336Z,29.5
2022-08-20T03:46:44.804Z,29.5
2022-08-20T03:47:47.273Z,29.5
2022-08-20T03:49:56.428Z,29.5
2022-08-20T03:50:58.895Z,29.5
2022-08-20T03:52:01.366Z,29.5
2022-08-20T03:53:03.837Z,29.5
2022-08-20T03:54:06.308Z,29.5
2022-08-20T03:55:08.791Z,29.5
2022-08-20T03:56:11.266Z,29.5
2022-08-20T03:57:14.084Z,29.5
2022-08-20T03:58:16.568Z,29.5
2022-08-20T03:59:18.773Z,29.5
2022-08-20T04:00:21.250Z,29.5
2022-08-20T04:02:28.461Z,29.5
2022-08-20T04:03:30.939Z,29.5
2022-08-20T04:04:33.410Z,29.5
2022-08-20T04:05:35.608Z,29.5
2022-08-20T04:06:41.173Z,29.5
2022-08-20T04:07:44.902Z,29.4
2022-08-20T04:08:47.112Z,29.4
2022-08-20T04:09:49.299Z,29.4
2022-08-20T04:10:51.267Z,29.4
2022-08-20T04:11:53.748Z,29.4
2022-08-20T04:12:56.316Z,29.4
2022-08-20T04:14:01.842Z,29.4
2022-08-20T04:15:11.314Z,29.4
2022-08-20T04:17:21.615Z,29.4
2022-08-20T04:18:24.524Z,29.4
2022-08-20T04:20:32.478Z,29.4
2022-08-20T04:21:34.407Z,29.4
2022-08-20T04:22:36.608Z,29.4
2022-08-20T04:23:40.618Z,29.4
2022-08-20T04:24:43.096Z,29.4
2022-08-20T04:25:45.941Z,29.4
2022-08-20T04:26:48.380Z,29.4
2022-08-20T04:27:51.132Z,29.4
2022-08-20T04:28:53.348Z,29.4
2022-08-20T04:29:55.818Z,29.4
2022-08-20T04:30:57.727Z,29.4
2022-08-20T04:32:00.196Z,29.4
2022-08-20T04:33:06.725Z,29.4
2022-08-20T04:34:09.186Z,29.4
2022-08-20T04:35:11.676Z,29.4
2022-08-20T04:36:14.172Z,29.4
2022-08-20T04:37:18.389Z,29.4
2022-08-20T04:38:20.872Z,29.4
2022-08-20T04:39:23.358Z,29.4
2022-08-20T04:40:25.841Z,29.4
2022-08-20T04:41:28.316Z,29.4
2022-08-20T04:42:30.796Z,29.4
2022-08-20T04:43:35.734Z,29.4
2022-08-20T04:44:38.209Z,29.4
2022-08-20T04:45:40.698Z,29.4
2022-08-20T04:46:43.174Z,29.4
2022-08-20T04:47:45.658Z,29.4
2022-08-20T04:50:59.693Z,29.4
2022-08-20T04:52:05.529Z,29.4
2022-08-20T04:53:07.741Z,29.4
2022-08-20T04:54:10.208Z,29.4
2022-08-20T04:55:12.677Z,29.4
2022-08-20T04:56:14.946Z,29.4
2022-08-20T04:57:17.882Z,29.4
2022-08-20T04:59:25.836Z,29.3
2022-08-20T05:00:28.062Z,29.3
2022-08-20T05:01:30.575Z,29.3
2022-08-20T05:02:32.963Z,29.3
2022-08-20T05:03:35.161Z,29.3
2022-08-20T05:04:37.372Z,29.3
2022-08-20T05:05:39.590Z,29.3
2022-08-20T05:06:42.065Z,29.3
2022-08-20T05:07:44.538Z,29.3
2022-08-20T05:08:46.744Z,29.3
2022-08-20T05:09:49.220Z,29.3
2022-08-20T05:11:56.694Z,29.3
2022-08-20T05:12:59.187Z,29.3
2022-08-20T05:14:01.661Z,29.3
2022-08-20T05:15:03.919Z,29.3
2022-08-20T05:16:06.407Z,29.3
2022-08-20T05:17:08.889Z,29.3
2022-08-20T05:18:11.375Z,29.3
2022-08-20T05:19:13.605Z,29.3
2022-08-20T05:20:16.079Z,29.3
2022-08-20T05:21:18.564Z,29.3
2022-08-20T05:22:20.757Z,29.3
2022-08-20T05:23:22.930Z,29.3
2022-08-20T05:24:25.410Z,29.3
2022-08-20T05:25:27.876Z,29.3
2022-08-20T05:26:30.075Z,29.3
2022-08-20T05:27:32.552Z,29.3
2022-08-20T05:29:40.016Z,29.3
2022-08-20T05:30:42.895Z,29.3
2022-08-20T05:31:45.562Z,29.3
2022-08-20T05:32:47.769Z,29.3
2022-08-20T05:33:49.977Z,29.3
2022-08-20T05:34:52.466Z,29.3
2022-08-20T05:35:54.938Z,29.3
2022-08-20T05:36:57.137Z,29.3
2022-08-20T05:37:59.756Z,29.3
2022-08-20T05:39:02.232Z,29.3
2022-08-20T05:40:04.634Z,29.3
2022-08-20T05:41:06.961Z,29.3
2022-08-20T05:42:08.620Z,29.3
2022-08-20T05:43:10.540Z,29.3
2022-08-20T05:44:12.735Z,29.3
2022-08-20T05:45:15.464Z,29.3
2022-08-20T05:46:17.665Z,29.3
2022-08-20T05:48:25.139Z,29.3
2022-08-20T05:49:27.612Z,29.3
2022-08-20T05:50:30.089Z,29.3
2022-08-20T05:51:32.556Z,29.3
2022-08-20T05:52:34.844Z,29.3
2022-08-20T05:53:37.330Z,29.3
2022-08-20T05:54:39.817Z,29.3
2022-08-20T05:55:42.293Z,29.3
2022-08-20T05:56:44.764Z,29.3
2022-08-20T05:57:47.242Z,29.3
2022-08-20T05:59:54.457Z,29.3
2022-08-20T06:00:57.154Z,29.3
2022-08-20T06:01:59.467Z,29.3
2022-08-20T06:03:01.394Z,29.3
2022-08-20T06:04:03.599Z,29.3
2022-08-20T06:05:05.253Z,29.3
2022-08-20T06:07:13.029Z,29.3
2022-08-20T06:08:15.327Z,29.3
2022-08-20T06:10:22.892Z,29.3
2022-08-20T06:11:25.398Z,29.3
2022-08-20T06:12:27.611Z,29.3
2022-08-20T06:13:30.098Z,29.3
2022-08-20T06:14:32.415Z,29.3
2022-08-20T06:15:36.311Z,29.3
2022-08-20T06:16:39.116Z,29.3
2022-08-20T06:18:50.301Z,29.3
2022-08-20T06:19:52.770Z,29.3
2022-08-20T06:20:55.589Z,29.3
2022-08-20T06:21:58.246Z,29.3
2022-08-20T06:23:00.501Z,29.3
2022-08-20T06:24:03.126Z,29.3
2022-08-20T06:25:05.489Z,29.3
2022-08-20T06:26:07.999Z,29.3
2022-08-20T06:27:10.470Z,29.3
2022-08-20T06:28:12.942Z,29.3
2022-08-20T06:29:15.122Z,29.3
2022-08-20T06:30:17.607Z,29.3
2022-08-20T06:31:20.090Z,29.3
2022-08-20T06:33:27.556Z,29.3
2022-08-20T06:34:31.860Z,29.3
2022-08-20T06:35:34.518Z,29.3
2022-08-20T06:36:36.440Z,29.3
2022-08-20T06:37:38.909Z,29.3
2022-08-20T06:38:43.025Z,29.3
2022-08-20T06:39:45.713Z,29.3
2022-08-20T06:40:48.490Z,29.3
2022-08-20T06:42:56.476Z,29.3
2022-08-20T06:43:58.946Z,29.3
2022-08-20T06:45:01.478Z,29.3
2022-08-20T06:46:03.693Z,29.3
2022-08-20T06:47:05.907Z,29.3
2022-08-20T06:48:08.389Z,29.3
2022-08-20T06:49:10.877Z,29.3
2022-08-20T06:50:13.052Z,29.3
2022-08-20T06:51:15.561Z,29.3
2022-08-20T06:52:18.232Z,29.3
2022-08-20T06:53:20.474Z,29.3
2022-08-20T06:55:27.725Z,29.3
2022-08-20T06:56:30.302Z,29.3
2022-08-20T06:57:32.533Z,29.3
2022-08-20T06:59:39.755Z,29.3
2022-08-20T07:00:42.366Z,29.3
2022-08-20T07:01:44.605Z,29.3
2022-08-20T07:02:46.983Z,29.3
2022-08-20T07:04:53.912Z,29.3
2022-08-20T07:05:56.102Z,29.3
2022-08-20T07:06:58.604Z,29.3
2022-08-20T07:08:00.521Z,29.3
2022-08-20T07:09:02.430Z,29.3
2022-08-20T07:10:04.913Z,29.3
2022-08-20T07:11:07.390Z,29.3
2022-08-20T07:12:09.862Z,29.3
2022-08-20T07:13:12.684Z,29.3
2022-08-20T07:14:15.150Z,29.3
2022-08-20T07:15:17.627Z,29.3
2022-08-20T07:16:20.147Z,29.3
2022-08-20T07:18:29.706Z,29.3
2022-08-20T07:19:32.181Z,29.3
2022-08-20T07:20:34.371Z,29.3
2022-08-20T07:21:36.850Z,29.3
2022-08-20T07:22:39.319Z,29.3
2022-08-20T07:23:41.221Z,29.3
2022-08-20T07:25:48.712Z,29.3
2022-08-20T07:26:50.921Z,29.3
2022-08-20T07:27:58.234Z,29.3
2022-08-20T07:29:00.424Z,29.3
2022-08-20T07:30:02.363Z,29.3
2022-08-20T07:32:10.752Z,29.3
2022-08-20T07:33:13.229Z,29.3
2022-08-20T07:35:23.013Z,29.3
2022-08-20T07:36:25.487Z,29.3
2022-08-20T07:37:27.136Z,29.3
2022-08-20T07:38:29.370Z,29.3
2022-08-20T07:39:33.257Z,29.3
2022-08-20T07:40:35.847Z,29.3
2022-08-20T07:41:38.063Z,29.3
2022-08-20T07:42:40.539Z,29.3
2022-08-20T07:43:43.018Z,29.3
2022-08-20T07:44:45.499Z,29.2
2022-08-20T07:46:52.977Z,29.3
2022-08-20T07:47:55.222Z,29.3
2022-08-20T07:48:57.733Z,29.2
2022-08-20T07:50:00.207Z,29.2
2022-08-20T07:51:02.428Z,29.2
2022-08-20T07:53:10.401Z,29.3
2022-08-20T07:54:12.887Z,29.3
2022-08-20T07:55:15.093Z,29.2
2022-08-20T07:56:17.588Z,29.3
2022-08-20T07:57:19.794Z,29.3
2022-08-20T07:59:27.340Z,29.3
2022-08-20T08:00:29.514Z,29.3
2022-08-20T08:01:32.162Z,29.3
2022-08-20T08:02:34.336Z,29.3
2022-08-20T08:04:41.835Z,29.3
2022-08-20T08:05:43.756Z,29.2
2022-08-20T08:06:46.231Z,29.2
2022-08-20T08:07:48.813Z,29.2
2022-08-20T08:08:51.017Z,29.2
2022-08-20T08:09:53.970Z,29.3
2022-08-20T08:10:56.462Z,29.2
2022-08-20T08:11:58.954Z,29.3
2022-08-20T08:13:01.164Z,29.2
2022-08-20T08:14:03.649Z,29.2
2022-08-20T08:15:06.127Z,29.2
2022-08-20T08:16:08.320Z,29.2
2022-08-20T08:17:10.809Z,29.2
2022-08-20T08:18:15.240Z,29.2
2022-08-20T08:19:17.731Z,29.2
2022-08-20T08:20:19.936Z,29.2
2022-08-20T08:21:22.026Z,29.2
2022-08-20T08:22:24.237Z,29.2
2022-08-20T08:24:31.142Z,29.2
2022-08-20T08:25:33.611Z,29.2
2022-08-20T08:26:36.094Z,29.2
2022-08-20T08:27:38.036Z,29.2
2022-08-20T08:28:40.508Z,29.2
2022-08-20T08:29:42.975Z,29.2
2022-08-20T08:30:45.184Z,29.2
2022-08-20T08:31:46.891Z,29.2
2022-08-20T08:32:49.270Z,29.2
2022-08-20T08:33:51.832Z,29.2
2022-08-20T08:34:54.033Z,29.2
2022-08-20T08:35:56.229Z,29.2
2022-08-20T08:36:58.713Z,29.2
2022-08-20T08:38:00.620Z,29.2
2022-08-20T08:39:03.096Z,29.2
2022-08-20T08:40:05.561Z,29.2
2022-08-20T08:41:07.911Z,29.2
2022-08-20T08:44:20.389Z,29.2
2022-08-20T08:45:22.592Z,29.2
2022-08-20T08:46:24.771Z,29.2
2022-08-20T08:47:26.702Z,29.2
2022-08-20T08:48:28.934Z,29.2
2022-08-20T08:51:41.429Z,29.2
2022-08-20T08:52:43.924Z,29.2
2022-08-20T08:53:46.408Z,29.2
2022-08-20T08:54:48.333Z,29.2
2022-08-20T08:55:50.576Z,29.2
2022-08-20T08:56:53.054Z,29.2
2022-08-20T08:57:55.239Z,29.2
2022-08-20T08:58:57.720Z,29.2
2022-08-20T09:02:09.588Z,29.2
2022-08-20T09:03:12.242Z,29.2
2022-08-20T09:04:14.726Z,29.2
2022-08-20T09:05:16.931Z,29.2
2022-08-20T09:06:19.144Z,29.2
2022-08-20T09:07:21.635Z,29.2
2022-08-20T09:08:23.841Z,29.2
2022-08-20T09:09:26.046Z,29.2
2022-08-20T09:10:28.222Z,29.2
2022-08-20T09:11:30.691Z,29.2
2022-08-20T09:12:33.163Z,29.2
2022-08-20T09:13:35.390Z,29.2
2022-08-20T09:14:37.885Z,29.2
2022-08-20T09:15:40.381Z,29.2
2022-08-20T09:17:47.876Z,29.2
2022-08-20T09:18:50.075Z,29.2
2022-08-20T09:19:52.372Z,29.2
2022-08-20T09:20:54.959Z,29.2
2022-08-20T09:21:57.436Z,29.2
2022-08-20T09:22:59.938Z,29.2
2022-08-20T09:24:02.435Z,29.1
2022-08-20T09:25:04.907Z,29.2
2022-08-20T09:26:06.812Z,29.1
2022-08-20T09:27:08.731Z,29.1
2022-08-20T09:28:14.542Z,29.1
2022-08-20T09:29:18.317Z,29.2
2022-08-20T09:30:21.361Z,29.1
2022-08-20T09:31:25.280Z,29.1
2022-08-20T09:32:28.741Z,29.2
2022-08-20T09:33:30.987Z,29.2
2022-08-20T09:34:33.196Z,29.2
2022-08-20T09:35:35.439Z,29.2
2022-08-20T09:36:37.931Z,29.2
2022-08-20T09:37:39.839Z,29.2
2022-08-20T09:38:42.350Z,29.2
2022-08-20T09:39:45.002Z,29.2
2022-08-20T09:40:47.312Z,29.2
2022-08-20T09:41:49.905Z,29.2
2022-08-20T09:42:52.672Z,29.1
2022-08-20T09:43:55.616Z,29.2
2022-08-20T09:44:58.393Z,29.2
2022-08-20T09:46:00.377Z,29.2
2022-08-20T09:47:02.971Z,29.2
2022-08-20T09:49:11.636Z,29.2
2022-08-20T09:50:13.561Z,29.2
2022-08-20T09:51:15.927Z,29.2
2022-08-20T09:52:18.442Z,29.2
2022-08-20T09:53:20.652Z,29.2
2022-08-20T09:54:23.141Z,29.2
2022-08-20T09:55:26.792Z,29.2
2022-08-20T09:56:29.672Z,29.2
2022-08-20T09:57:32.222Z,29.2
2022-08-20T09:58:35.201Z,29.2
2022-08-20T09:59:37.875Z,29.2
2022-08-20T10:00:40.526Z,29.2
2022-08-20T10:01:43.369Z,29.2
2022-08-20T10:02:46.107Z,29.2
2022-08-20T10:03:48.697Z,29.2
2022-08-20T10:04:52.929Z,29.2
2022-08-20T10:05:54.866Z,29.2
2022-08-20T10:06:57.353Z,29.2
2022-08-20T10:07:59.656Z,29.2
2022-08-20T10:09:02.155Z,29.2
2022-08-20T10:10:04.361Z,29.2
2022-08-20T10:11:06.845Z,29.2
2022-08-20T10:12:09.322Z,29.2
2022-08-20T10:14:16.531Z,29.2
2022-08-20T10:15:18.753Z,29.2
2022-08-20T10:16:21.238Z,29.2
2022-08-20T10:17:23.449Z,29.2
2022-08-20T10:18:25.672Z,29.2
2022-08-20T10:19:27.634Z,29.2
2022-08-20T10:20:30.132Z,29.2
2022-08-20T10:22:37.630Z,29.2
2022-08-20T10:23:39.824Z,29.2
2022-08-20T10:24:42.035Z,29.2
2022-08-20T10:25:44.238Z,29.1
2022-08-20T10:26:46.709Z,29.2
2022-08-20T10:27:49.177Z,29.1
2022-08-20T10:28:51.435Z,29.1
2022-08-20T10:29:54.173Z,29.1
2022-08-20T10:30:56.643Z,29.2
2022-08-20T10:31:58.554Z,29.1
2022-08-20T10:33:00.752Z,29.2
2022-08-20T10:34:03.270Z,29.2
2022-08-20T10:35:05.771Z,29.1
2022-08-20T10:36:08.038Z,29.1
2022-08-20T10:37:10.516Z,29.1
2022-08-20T10:38:12.703Z,29.1
2022-08-20T10:39:15.182Z,29.1
2022-08-20T10:40:17.953Z,29.2
2022-08-20T10:41:20.852Z,29.1
2022-08-20T10:42:23.055Z,29.1
2022-08-20T10:43:25.545Z,29.1
2022-08-20T10:44:27.487Z,29.1
2022-08-20T10:45:29.714Z,29.1
2022-08-20T10:46:32.190Z,29.1
2022-08-20T10:47:34.390Z,29.1
2022-08-20T10:48:36.592Z,29.1
2022-08-20T10:49:38.498Z,29.1
2022-08-20T10:50:40.978Z,29.1
2022-08-20T10:51:43.173Z,29.1
2022-08-20T10:52:45.664Z,29.1
2022-08-20T10:53:48.136Z,29.1
2022-08-20T10:54:50.333Z,29.1
2022-08-20T10:55:52.536Z,29.1
2022-08-20T10:56:55.018Z,29.1
2022-08-20T10:57:57.928Z,29.1
2022-08-20T10:59:00.758Z,29.1
2022-08-20T11:00:03.816Z,29.1
2022-08-20T11:01:05.988Z,29.1
2022-08-20T11:02:07.978Z,29.1
2022-08-20T11:03:10.684Z,29.1
2022-08-20T11:04:13.160Z,29.1
2022-08-20T11:05:15.372Z,29.1
2022-08-20T11:06:17.592Z,29.1
2022-08-20T11:07:20.067Z,29.1
2022-08-20T11:09:32.012Z,29.1
2022-08-20T11:10:34.490Z,29.1
2022-08-20T11:11:36.709Z,29.1
2022-08-20T11:12:39.372Z,29.1
2022-08-20T11:13:45.115Z,29.1
2022-08-20T11:14:47.614Z,29.1
2022-08-20T11:15:50.108Z,29.1
2022-08-20T11:16:52.287Z,29.1
2022-08-20T11:17:54.486Z,29.1
2022-08-20T11:18:57.184Z,29.1
2022-08-20T11:19:59.661Z,29.1
2022-08-20T11:21:01.880Z,29.1
2022-08-20T11:22:04.369Z,29.1
2022-08-20T11:23:06.843Z,29.1
2022-08-20T11:24:08.793Z,29.1
2022-08-20T11:25:11.327Z,29.1
2022-08-20T11:26:13.518Z,29.1
2022-08-20T11:27:15.995Z,29.1
2022-08-20T11:29:23.469Z,29.1
2022-08-20T11:30:25.947Z,29.1
2022-08-20T11:31:27.865Z,29.1
2022-08-20T11:32:30.335Z,29.1
2022-08-20T11:33:32.537Z,29.1
2022-08-20T11:34:35.086Z,29.1
2022-08-20T11:36:42.593Z,29.1
2022-08-20T11:37:44.907Z,29.1
2022-08-20T11:38:47.119Z,29.1
2022-08-20T11:39:50.104Z,29.1
2022-08-20T11:40:52.481Z,29.1
2022-08-20T11:41:56.200Z,29.1
2022-08-20T11:45:10.112Z,29.1
2022-08-20T11:46:13.256Z,29.1
2022-08-20T11:47:15.461Z,29.1
2022-08-20T11:48:18.077Z,29.1
2022-08-20T11:49:20.643Z,29.1
2022-08-20T11:50:23.119Z,29.1
2022-08-20T11:51:25.305Z,29.1
2022-08-20T11:53:34.703Z,29.2
2022-08-20T11:54:40.709Z,29.2
2022-08-20T11:55:43.592Z,29.1
2022-08-20T11:56:46.811Z,29.1
2022-08-20T11:57:48.755Z,29.1
2022-08-20T11:58:50.952Z,29.2
2022-08-20T11:59:52.583Z,29.2
2022-08-20T12:00:55.092Z,29.1
2022-08-20T12:03:03.107Z,29.1
2022-08-20T12:04:05.801Z,29.2
2022-08-20T12:05:08.285Z,29.1
2022-08-20T12:06:10.800Z,29.1
2022-08-20T12:07:12.982Z,29.2
2022-08-20T12:10:25.486Z,29.1
2022-08-20T12:11:27.965Z,29.1
2022-08-20T12:12:30.469Z,29.1
2022-08-20T12:14:37.682Z,29.1
2022-08-20T12:15:40.173Z,29.1
2022-08-20T12:16:42.396Z,29.1
2022-08-20T12:17:44.889Z,29.1
2022-08-20T12:18:47.366Z,29.1
2022-08-20T12:19:49.872Z,29.1
2022-08-20T12:20:52.078Z,29.1
2022-08-20T12:21:54.283Z,29.1
2022-08-20T12:22:57.398Z,29.1
2022-08-20T12:24:00.129Z,29.1
2022-08-20T12:25:02.039Z,29.1
2022-08-20T12:26:03.670Z,29.1
2022-08-20T12:27:06.454Z,29.1
2022-08-20T12:28:09.383Z,29.1
2022-08-20T12:29:11.870Z,29.1
2022-08-20T12:30:14.360Z,29.1
2022-08-20T12:31:16.556Z,29.1
2022-08-20T12:32:19.042Z,29.1
2022-08-20T12:33:21.553Z,29.1
2022-08-20T12:34:23.747Z,29.1
2022-08-20T12:35:26.159Z,29.1
2022-08-20T12:36:28.667Z,29.1
2022-08-20T12:37:30.338Z,29.1
2022-08-20T12:38:32.270Z,29.1
2022-08-20T12:39:34.884Z,29.1
2022-08-20T12:40:37.211Z,29.1
2022-08-20T12:41:39.423Z,29.1
2022-08-20T12:42:43.190Z,29.1
2022-08-20T12:43:45.375Z,29.1
2022-08-20T12:44:47.867Z,29.1
2022-08-20T12:45:50.342Z,29.1
2022-08-20T12:46:52.811Z,29.1
2022-08-20T12:47:55.033Z,29.1
2022-08-20T12:48:57.292Z,29.1
2022-08-20T12:49:59.525Z,29.1
2022-08-20T12:51:01.720Z,29.1
2022-08-20T12:52:04.202Z,29.1
2022-08-20T12:53:06.453Z,29.1
2022-08-20T12:54:09.108Z,29.1
2022-08-20T12:55:11.359Z,29.1
2022-08-20T12:56:13.562Z,29.1
2022-08-20T12:57:16.030Z,29.1
2022-08-20T12:58:20.594Z,29.1
2022-08-20T13:00:27.833Z,29.1
2022-08-20T13:01:33.458Z,29.1
2022-08-20T13:02:36.118Z,29.1
2022-08-20T13:04:43.944Z,29.1
2022-08-20T13:05:46.570Z,29.1
2022-08-20T13:06:48.916Z,29.1
2022-08-20T13:07:51.385Z,29.1
2022-08-20T13:08:53.320Z,29.1
2022-08-20T13:09:55.801Z,29.1
2022-08-20T13:10:57.458Z,29.1
2022-08-20T13:13:05.433Z,29.1
2022-08-20T13:14:07.922Z,29.1
2022-08-20T13:15:10.128Z,29.1
2022-08-20T13:16:12.835Z,29.1
2022-08-20T13:17:17.136Z,29.1
2022-08-20T13:18:25.429Z,29.1
2022-08-20T13:19:27.897Z,29.1
2022-08-20T13:21:34.849Z,29.1
2022-08-20T13:22:37.094Z,29.1
2022-08-20T13:23:39.281Z,29.1
2022-08-20T13:24:41.781Z,29.1
2022-08-20T13:25:43.966Z,29.1
2022-08-20T13:26:46.162Z,29.1
2022-08-20T13:27:48.265Z,29.1
2022-08-20T13:28:50.466Z,29.1
2022-08-20T13:30:57.681Z,29.1
2022-08-20T13:31:59.603Z,29.1
2022-08-20T13:33:02.088Z,29.1
2022-08-20T13:34:04.015Z,29.1
2022-08-20T13:35:06.225Z,29.1
2022-08-20T13:36:08.129Z,29.1
2022-08-20T13:37:10.891Z,29.1
2022-08-20T13:38:13.713Z,29.1
2022-08-20T13:39:16.198Z,29.1
2022-08-20T13:40:19.060Z,29.1
2022-08-20T13:41:21.275Z,29.1
2022-08-20T13:42:23.554Z,29.1
2022-08-20T13:43:25.783Z,29.1
2022-08-20T13:45:33.271Z,29.1
2022-08-20T13:46:35.754Z,29.2
2022-08-20T13:47:37.953Z,29.2
2022-08-20T13:48:40.443Z,29.2
2022-08-20T13:49:42.725Z,29.2
2022-08-20T13:52:56.836Z,29.1
2022-08-20T13:53:59.666Z,29.1
2022-08-20T13:56:09.635Z,29.1
2022-08-20T14:00:13.022Z,29.1
2022-08-20T14:01:15.712Z,29.1
2022-08-20T14:02:18.625Z,29.1
2022-08-20T14:04:25.834Z,29.1
2022-08-20T14:05:28.317Z,29.1
2022-08-20T14:06:30.805Z,29.1
2022-08-20T14:07:33.956Z,29.1
2022-08-20T14:08:36.432Z,29.1
2022-08-20T14:09:38.154Z,29.1
2022-08-20T14:11:45.358Z,29.1
2022-08-20T14:12:48.760Z,29.1
2022-08-20T14:13:51.418Z,29.1
2022-08-20T14:14:53.892Z,29.1
2022-08-20T14:15:56.140Z,29.1
2022-08-20T14:16:58.539Z,29.1
2022-08-20T14:18:02.978Z,29.1
2022-08-20T14:19:05.245Z,29.1
2022-08-20T14:20:08.281Z,29.1
2022-08-20T14:21:12.269Z,29.1
2022-08-20T14:22:14.811Z,29.1
2022-08-20T14:23:16.733Z,29.1
2022-08-20T14:24:18.671Z,29.1
2022-08-20T14:25:20.883Z,29.1
2022-08-20T14:26:23.377Z,29.1
2022-08-20T14:28:30.891Z,29.1
2022-08-20T14:30:38.121Z,29.1
2022-08-20T14:31:40.036Z,29.1
2022-08-20T14:32:42.524Z,29.1
2022-08-20T14:33:45.875Z,29.1
2022-08-20T14:34:48.361Z,29.1
2022-08-20T14:35:49.997Z,29.1
2022-08-20T14:36:52.474Z,29.1
2022-08-20T14:37:54.950Z,29.1
2022-08-20T14:38:57.154Z,29.1
2022-08-20T14:39:59.919Z,29.1
2022-08-20T14:41:02.605Z,29.1
2022-08-20T14:42:04.812Z,29.1
2022-08-20T14:43:07.010Z,29.1
2022-08-20T14:44:09.484Z,29.1
2022-08-20T14:45:11.708Z,29.1
2022-08-20T14:46:14.189Z,29.1
2022-08-20T14:47:16.401Z,29.1
2022-08-20T14:48:18.616Z,29.1
2022-08-20T14:49:20.836Z,29.1
2022-08-20T14:50:23.307Z,29.1
2022-08-20T14:51:25.521Z,29.1
2022-08-20T14:52:29.121Z,29.1
2022-08-20T14:53:31.600Z,29.1
2022-08-20T14:54:33.803Z,29.1
2022-08-20T14:55:36.008Z,29.1
2022-08-20T14:56:38.204Z,29.1
2022-08-20T14:57:40.679Z,29.1
2022-08-20T14:58:42.599Z,29.1
2022-08-20T14:59:45.123Z,29.1
2022-08-20T15:00:47.788Z,29.1
2022-08-20T15:01:50.473Z,29.1
2022-08-20T15:02:52.403Z,29.1
2022-08-20T15:03:54.688Z,29.1
2022-08-20T15:04:57.030Z,29.1
2022-08-20T15:05:59.242Z,29.1
2022-08-20T15:08:07.525Z,29.1
2022-08-20T15:09:12.342Z,29.1
2022-08-20T15:10:15.359Z,29.1
2022-08-20T15:11:18.864Z,29.1
2022-08-20T15:12:21.068Z,29.1
2022-08-20T15:13:23.290Z,29.1
2022-08-20T15:15:30.815Z,29.1
2022-08-20T15:16:33.290Z,29.1
2022-08-20T15:17:35.494Z,29.1
2022-08-20T15:18:37.684Z,29.1
2022-08-20T15:19:40.171Z,29.1
2022-08-20T15:20:42.650Z,29.1
2022-08-20T15:21:46.544Z,29.1
2022-08-20T15:22:49.035Z,29
2022-08-20T15:23:51.250Z,29
2022-08-20T15:25:58.176Z,29
2022-08-20T15:27:00.079Z,29
2022-08-20T15:28:02.908Z,29
2022-08-20T15:29:05.395Z,29
2022-08-20T15:30:07.890Z,29
2022-08-20T15:31:10.088Z,29